sensor_id;sensor_type;location;lat;lon;timestamp;temperature;humidity
47434;SHT31;33184;48.774;8.918;2022-09-01T00:03:35;15.05;86.14
47434;SHT31;33184;48.774;8.918;2022-09-01T00:08:59;15.00;86.38
47434;SHT31;33184;48.774;8.918;2022-09-01T00:14:26;14.99;86.25
47434;SHT31;33184;48.774;8.918;2022-09-01T00:19:47;14.96;85.98
47434;SHT31;33184;48.774;8.918;2022-09-01T00:25:08;14.84;85.94
47434;SHT31;33184;48.774;8.918;2022-09-01T00:30:29;14.78;86.36
47434;SHT31;33184;48.774;8.918;2022-09-01T00:35:50;14.79;86.13
47434;SHT31;33184;48.774;8.918;2022-09-01T00:41:11;14.65;85.77
47434;SHT31;33184;48.774;8.918;2022-09-01T00:46:38;14.50;85.76
47434;SHT31;33184;48.774;8.918;2022-09-01T00:52:06;14.32;86.41
47434;SHT31;33184;48.774;8.918;2022-09-01T00:57:27;14.16;87.12
47434;SHT31;33184;48.774;8.918;2022-09-01T01:02:48;14.00;87.48
47434;SHT31;33184;48.774;8.918;2022-09-01T01:08:14;13.99;88.34
47434;SHT31;33184;48.774;8.918;2022-09-01T01:14:07;13.99;88.22
47434;SHT31;33184;48.774;8.918;2022-09-01T01:19:54;13.99;87.66
47434;SHT31;33184;48.774;8.918;2022-09-01T01:25:52;13.97;87.67
47434;SHT31;33184;48.774;8.918;2022-09-01T01:31:16;14.04;87.66
47434;SHT31;33184;48.774;8.918;2022-09-01T01:36:37;14.18;87.45
47434;SHT31;33184;48.774;8.918;2022-09-01T01:42:03;14.13;87.03
47434;SHT31;33184;48.774;8.918;2022-09-01T01:47:27;13.96;86.87
47434;SHT31;33184;48.774;8.918;2022-09-01T01:52:47;13.70;87.62
47434;SHT31;33184;48.774;8.918;2022-09-01T01:58:09;13.70;88.02
47434;SHT31;33184;48.774;8.918;2022-09-01T02:03:34;13.75;87.60
47434;SHT31;33184;48.774;8.918;2022-09-01T02:08:57;13.70;87.39
47434;SHT31;33184;48.774;8.918;2022-09-01T02:14:18;13.72;87.42
47434;SHT31;33184;48.774;8.918;2022-09-01T02:19:40;13.73;87.57
47434;SHT31;33184;48.774;8.918;2022-09-01T02:25:04;13.82;87.44
47434;SHT31;33184;48.774;8.918;2022-09-01T02:30:25;13.83;86.80
47434;SHT31;33184;48.774;8.918;2022-09-01T02:35:51;13.72;86.36
47434;SHT31;33184;48.774;8.918;2022-09-01T02:41:14;13.65;86.37
47434;SHT31;33184;48.774;8.918;2022-09-01T02:46:41;13.60;86.14
47434;SHT31;33184;48.774;8.918;2022-09-01T02:52:02;13.56;86.02
47434;SHT31;33184;48.774;8.918;2022-09-01T02:57:24;13.45;85.71
47434;SHT31;33184;48.774;8.918;2022-09-01T03:02:46;13.36;85.67
47434;SHT31;33184;48.774;8.918;2022-09-01T03:08:09;13.34;85.70
47434;SHT31;33184;48.774;8.918;2022-09-01T03:13:31;13.26;85.95
47434;SHT31;33184;48.774;8.918;2022-09-01T03:18:52;13.25;86.15
47434;SHT31;33184;48.774;8.918;2022-09-01T03:24:15;13.22;86.25
47434;SHT31;33184;48.774;8.918;2022-09-01T03:29:36;13.08;86.43
47434;SHT31;33184;48.774;8.918;2022-09-01T03:34:58;12.75;87.50
47434;SHT31;33184;48.774;8.918;2022-09-01T03:40:19;12.63;88.73
47434;SHT31;33184;48.774;8.918;2022-09-01T03:45:41;12.64;89.08
47434;SHT31;33184;48.774;8.918;2022-09-01T03:51:02;12.51;89.33
47434;SHT31;33184;48.774;8.918;2022-09-01T03:56:25;12.61;89.46
47434;SHT31;33184;48.774;8.918;2022-09-01T04:01:47;12.77;89.38
47434;SHT31;33184;48.774;8.918;2022-09-01T04:07:09;12.83;88.51
47434;SHT31;33184;48.774;8.918;2022-09-01T04:12:29;12.87;88.22
47434;SHT31;33184;48.774;8.918;2022-09-01T04:17:50;12.74;87.87
47434;SHT31;33184;48.774;8.918;2022-09-01T04:23:31;12.74;87.71
47434;SHT31;33184;48.774;8.918;2022-09-01T04:29:01;12.63;87.35
47434;SHT31;33184;48.774;8.918;2022-09-01T04:34:22;12.54;87.51
47434;SHT31;33184;48.774;8.918;2022-09-01T04:39:49;12.60;87.77
47434;SHT31;33184;48.774;8.918;2022-09-01T04:45:11;12.70;88.32
47434;SHT31;33184;48.774;8.918;2022-09-01T04:50:35;12.74;87.91
47434;SHT31;33184;48.774;8.918;2022-09-01T04:56:31;12.60;88.70
47434;SHT31;33184;48.774;8.918;2022-09-01T05:02:10;12.54;89.36
47434;SHT31;33184;48.774;8.918;2022-09-01T05:07:31;12.61;89.71
47434;SHT31;33184;48.774;8.918;2022-09-01T05:12:53;12.67;89.55
47434;SHT31;33184;48.774;8.918;2022-09-01T05:18:18;12.78;89.31
47434;SHT31;33184;48.774;8.918;2022-09-01T05:23:48;12.87;89.05
47434;SHT31;33184;48.774;8.918;2022-09-01T05:29:11;12.73;88.94
47434;SHT31;33184;48.774;8.918;2022-09-01T05:34:36;12.83;89.45
47434;SHT31;33184;48.774;8.918;2022-09-01T05:39:59;12.95;89.52
47434;SHT31;33184;48.774;8.918;2022-09-01T05:45:21;13.05;89.09
47434;SHT31;33184;48.774;8.918;2022-09-01T05:50:43;13.25;90.03
47434;SHT31;33184;48.774;8.918;2022-09-01T05:56:07;13.39;89.53
47434;SHT31;33184;48.774;8.918;2022-09-01T06:01:30;13.66;89.37
47434;SHT31;33184;48.774;8.918;2022-09-01T06:06:55;13.76;89.27
47434;SHT31;33184;48.774;8.918;2022-09-01T06:12:16;13.85;89.42
47434;SHT31;33184;48.774;8.918;2022-09-01T06:17:38;13.91;89.73
47434;SHT31;33184;48.774;8.918;2022-09-01T06:22:59;14.01;89.97
47434;SHT31;33184;48.774;8.918;2022-09-01T06:28:20;14.18;89.93
47434;SHT31;33184;48.774;8.918;2022-09-01T06:33:43;14.34;89.72
47434;SHT31;33184;48.774;8.918;2022-09-01T06:39:06;14.47;89.68
47434;SHT31;33184;48.774;8.918;2022-09-01T06:44:28;14.51;89.69
47434;SHT31;33184;48.774;8.918;2022-09-01T06:49:59;14.61;90.01
47434;SHT31;33184;48.774;8.918;2022-09-01T06:55:21;14.81;89.89
47434;SHT31;33184;48.774;8.918;2022-09-01T07:00:42;14.88;89.39
47434;SHT31;33184;48.774;8.918;2022-09-01T07:06:05;14.96;89.03
47434;SHT31;33184;48.774;8.918;2022-09-01T07:11:46;15.05;88.99
47434;SHT31;33184;48.774;8.918;2022-09-01T07:17:09;15.23;88.65
47434;SHT31;33184;48.774;8.918;2022-09-01T07:22:36;15.35;88.26
47434;SHT31;33184;48.774;8.918;2022-09-01T07:27:57;15.39;87.91
47434;SHT31;33184;48.774;8.918;2022-09-01T07:33:20;15.42;87.76
47434;SHT31;33184;48.774;8.918;2022-09-01T07:38:45;15.43;87.85
47434;SHT31;33184;48.774;8.918;2022-09-01T07:44:11;15.53;88.06
47434;SHT31;33184;48.774;8.918;2022-09-01T07:50:07;15.88;88.18
47434;SHT31;33184;48.774;8.918;2022-09-01T07:55:29;15.97;87.51
47434;SHT31;33184;48.774;8.918;2022-09-01T08:00:50;16.21;87.27
47434;SHT31;33184;48.774;8.918;2022-09-01T08:06:14;16.31;86.18
47434;SHT31;33184;48.774;8.918;2022-09-01T08:11:39;16.55;85.58
47434;SHT31;33184;48.774;8.918;2022-09-01T08:17:00;16.82;84.05
47434;SHT31;33184;48.774;8.918;2022-09-01T08:22:21;16.90;83.16
47434;SHT31;33184;48.774;8.918;2022-09-01T08:27:50;16.90;83.02
47434;SHT31;33184;48.774;8.918;2022-09-01T08:33:11;16.94;81.96
47434;SHT31;33184;48.774;8.918;2022-09-01T08:38:37;16.87;82.77
47434;SHT31;33184;48.774;8.918;2022-09-01T08:44:18;17.02;82.24
47434;SHT31;33184;48.774;8.918;2022-09-01T08:49:44;17.00;82.19
47434;SHT31;33184;48.774;8.918;2022-09-01T08:55:44;17.08;82.21
47434;SHT31;33184;48.774;8.918;2022-09-01T09:01:26;17.32;80.58
47434;SHT31;33184;48.774;8.918;2022-09-01T09:07:01;17.38;80.48
47434;SHT31;33184;48.774;8.918;2022-09-01T09:12:43;17.48;79.98
47434;SHT31;33184;48.774;8.918;2022-09-01T09:18:19;17.47;80.24
47434;SHT31;33184;48.774;8.918;2022-09-01T09:23:47;17.48;79.54
47434;SHT31;33184;48.774;8.918;2022-09-01T09:29:10;17.62;79.59
47434;SHT31;33184;48.774;8.918;2022-09-01T09:34:36;17.82;77.11
47434;SHT31;33184;48.774;8.918;2022-09-01T09:40:19;18.16;76.70
47434;SHT31;33184;48.774;8.918;2022-09-01T09:45:39;18.49;74.99
47434;SHT31;33184;48.774;8.918;2022-09-01T09:51:19;19.22;73.53
47434;SHT31;33184;48.774;8.918;2022-09-01T09:56:41;18.85;72.07
47434;SHT31;33184;48.774;8.918;2022-09-01T10:02:24;18.56;72.77
47434;SHT31;33184;48.774;8.918;2022-09-01T10:07:46;18.56;72.72
47434;SHT31;33184;48.774;8.918;2022-09-01T10:13:15;18.99;72.18
47434;SHT31;33184;48.774;8.918;2022-09-01T10:18:41;19.99;69.84
47434;SHT31;33184;48.774;8.918;2022-09-01T10:24:23;20.35;64.40
47434;SHT31;33184;48.774;8.918;2022-09-01T10:29:59;20.47;63.70
47434;SHT31;33184;48.774;8.918;2022-09-01T10:40:52;20.30;66.02
47434;SHT31;33184;48.774;8.918;2022-09-01T10:51:55;20.45;63.52
47434;SHT31;33184;48.774;8.918;2022-09-01T10:57:43;21.33;62.84
47434;SHT31;33184;48.774;8.918;2022-09-01T11:09:03;20.99;61.73
47434;SHT31;33184;48.774;8.918;2022-09-01T11:14:25;21.93;59.68
47434;SHT31;33184;48.774;8.918;2022-09-01T11:25:37;22.94;53.47
47434;SHT31;33184;48.774;8.918;2022-09-01T11:31:13;22.12;56.27
47434;SHT31;33184;48.774;8.918;2022-09-01T11:47:32;23.43;53.58
47434;SHT31;33184;48.774;8.918;2022-09-01T11:52:58;22.73;53.59
47434;SHT31;33184;48.774;8.918;2022-09-01T12:03:49;22.25;55.27
47434;SHT31;33184;48.774;8.918;2022-09-01T12:09:10;22.52;53.80
47434;SHT31;33184;48.774;8.918;2022-09-01T12:14:31;21.90;56.43
47434;SHT31;33184;48.774;8.918;2022-09-01T12:19:52;21.50;57.82
47434;SHT31;33184;48.774;8.918;2022-09-01T12:25:31;21.42;59.41
47434;SHT31;33184;48.774;8.918;2022-09-01T12:30:53;22.36;57.77
47434;SHT31;33184;48.774;8.918;2022-09-01T12:42:00;21.39;58.15
47434;SHT31;33184;48.774;8.918;2022-09-01T12:52:59;23.87;52.46
47434;SHT31;33184;48.774;8.918;2022-09-01T12:58:24;25.68;47.65
47434;SHT31;33184;48.774;8.918;2022-09-01T13:09:30;26.98;43.00
47434;SHT31;33184;48.774;8.918;2022-09-01T13:14:51;27.52;41.57
47434;SHT31;33184;48.774;8.918;2022-09-01T13:20:12;27.11;41.04
47434;SHT31;33184;48.774;8.918;2022-09-01T13:25:33;27.63;40.17
47434;SHT31;33184;48.774;8.918;2022-09-01T13:31:02;26.76;42.62
47434;SHT31;33184;48.774;8.918;2022-09-01T13:36:26;26.25;44.21
47434;SHT31;33184;48.774;8.918;2022-09-01T13:41:47;24.43;48.73
47434;SHT31;33184;48.774;8.918;2022-09-01T13:47:08;23.26;52.22
47434;SHT31;33184;48.774;8.918;2022-09-01T13:52:29;22.96;53.40
47434;SHT31;33184;48.774;8.918;2022-09-01T13:57:49;22.68;54.11
47434;SHT31;33184;48.774;8.918;2022-09-01T14:03:17;22.59;53.38
47434;SHT31;33184;48.774;8.918;2022-09-01T14:08:38;22.53;52.98
47434;SHT31;33184;48.774;8.918;2022-09-01T14:13:59;22.94;52.75
47434;SHT31;33184;48.774;8.918;2022-09-01T14:19:20;23.00;51.45
47434;SHT31;33184;48.774;8.918;2022-09-01T14:24:40;24.40;48.62
47434;SHT31;33184;48.774;8.918;2022-09-01T14:30:02;23.91;48.44
47434;SHT31;33184;48.774;8.918;2022-09-01T14:35:23;23.84;48.59
47434;SHT31;33184;48.774;8.918;2022-09-01T14:40:46;23.65;48.42
47434;SHT31;33184;48.774;8.918;2022-09-01T14:46:08;24.06;48.61
47434;SHT31;33184;48.774;8.918;2022-09-01T14:51:30;25.48;45.41
47434;SHT31;33184;48.774;8.918;2022-09-01T14:56:51;25.92;43.71
47434;SHT31;33184;48.774;8.918;2022-09-01T15:02:12;25.61;45.20
47434;SHT31;33184;48.774;8.918;2022-09-01T15:07:33;25.03;46.79
47434;SHT31;33184;48.774;8.918;2022-09-01T15:12:56;25.88;45.33
47434;SHT31;33184;48.774;8.918;2022-09-01T15:18:17;26.13;44.57
47434;SHT31;33184;48.774;8.918;2022-09-01T15:23:37;25.78;43.43
47434;SHT31;33184;48.774;8.918;2022-09-01T15:28:58;24.62;46.24
47434;SHT31;33184;48.774;8.918;2022-09-01T15:34:18;24.38;46.83
47434;SHT31;33184;48.774;8.918;2022-09-01T15:39:39;24.84;45.61
47434;SHT31;33184;48.774;8.918;2022-09-01T15:45:02;25.14;44.59
47434;SHT31;33184;48.774;8.918;2022-09-01T15:50:25;25.01;44.09
47434;SHT31;33184;48.774;8.918;2022-09-01T15:55:47;25.15;44.06
47434;SHT31;33184;48.774;8.918;2022-09-01T16:01:08;25.03;44.45
47434;SHT31;33184;48.774;8.918;2022-09-01T16:06:29;24.88;43.98
47434;SHT31;33184;48.774;8.918;2022-09-01T16:11:50;24.42;44.20
47434;SHT31;33184;48.774;8.918;2022-09-01T16:17:19;24.19;45.79
47434;SHT31;33184;48.774;8.918;2022-09-01T16:22:54;24.08;45.00
47434;SHT31;33184;48.774;8.918;2022-09-01T16:28:28;23.81;46.31
47434;SHT31;33184;48.774;8.918;2022-09-01T16:33:52;24.15;46.90
47434;SHT31;33184;48.774;8.918;2022-09-01T16:39:29;24.19;46.61
47434;SHT31;33184;48.774;8.918;2022-09-01T16:51:08;23.41;47.59
47434;SHT31;33184;48.774;8.918;2022-09-01T17:02:32;22.84;49.13
47434;SHT31;33184;48.774;8.918;2022-09-01T17:08:23;22.48;49.81
47434;SHT31;33184;48.774;8.918;2022-09-01T17:13:47;22.12;50.85
47434;SHT31;33184;48.774;8.918;2022-09-01T17:19:17;22.11;51.78
47434;SHT31;33184;48.774;8.918;2022-09-01T17:24:42;22.04;52.12
47434;SHT31;33184;48.774;8.918;2022-09-01T17:30:04;21.85;52.41
47434;SHT31;33184;48.774;8.918;2022-09-01T17:41:47;21.63;53.13
47434;SHT31;33184;48.774;8.918;2022-09-01T17:47:25;21.50;53.82
47434;SHT31;33184;48.774;8.918;2022-09-01T17:53:15;21.35;54.44
47434;SHT31;33184;48.774;8.918;2022-09-01T17:58:50;21.10;55.24
47434;SHT31;33184;48.774;8.918;2022-09-01T18:04:38;20.94;55.58
47434;SHT31;33184;48.774;8.918;2022-09-01T18:10:04;20.78;56.26
47434;SHT31;33184;48.774;8.918;2022-09-01T18:15:26;20.55;56.48
47434;SHT31;33184;48.774;8.918;2022-09-01T18:20:47;20.45;56.79
47434;SHT31;33184;48.774;8.918;2022-09-01T18:32:02;19.94;58.52
47434;SHT31;33184;48.774;8.918;2022-09-01T18:48:53;19.58;59.33
47434;SHT31;33184;48.774;8.918;2022-09-01T18:54:45;19.53;60.04
47434;SHT31;33184;48.774;8.918;2022-09-01T19:00:16;19.48;60.25
47434;SHT31;33184;48.774;8.918;2022-09-01T19:17:21;19.16;60.45
47434;SHT31;33184;48.774;8.918;2022-09-01T19:29:04;19.21;61.26
47434;SHT31;33184;48.774;8.918;2022-09-01T19:34:30;19.08;61.63
47434;SHT31;33184;48.774;8.918;2022-09-01T19:39:51;18.88;62.00
47434;SHT31;33184;48.774;8.918;2022-09-01T19:51:23;18.71;63.91
47434;SHT31;33184;48.774;8.918;2022-09-01T19:56:50;18.54;64.22
47434;SHT31;33184;48.774;8.918;2022-09-01T20:02:24;18.33;64.97
47434;SHT31;33184;48.774;8.918;2022-09-01T20:18:51;18.00;66.30
47434;SHT31;33184;48.774;8.918;2022-09-01T20:24:33;17.90;66.87
47434;SHT31;33184;48.774;8.918;2022-09-01T20:30:03;17.78;67.50
47434;SHT31;33184;48.774;8.918;2022-09-01T20:40:53;17.48;68.72
47434;SHT31;33184;48.774;8.918;2022-09-01T20:46:21;17.39;68.96
47434;SHT31;33184;48.774;8.918;2022-09-01T20:51:56;17.11;70.09
47434;SHT31;33184;48.774;8.918;2022-09-01T21:25:58;16.87;71.22
47434;SHT31;33184;48.774;8.918;2022-09-01T21:31:20;16.79;71.49
47434;SHT31;33184;48.774;8.918;2022-09-01T21:36:41;16.82;71.56
47434;SHT31;33184;48.774;8.918;2022-09-01T21:42:03;16.76;71.83
47434;SHT31;33184;48.774;8.918;2022-09-01T21:47:25;16.62;72.14
47434;SHT31;33184;48.774;8.918;2022-09-01T21:52:46;16.49;72.42
47434;SHT31;33184;48.774;8.918;2022-09-01T21:58:08;16.39;72.63
47434;SHT31;33184;48.774;8.918;2022-09-01T22:03:29;16.24;72.62
47434;SHT31;33184;48.774;8.918;2022-09-01T22:08:49;16.11;73.55
47434;SHT31;33184;48.774;8.918;2022-09-01T22:14:11;15.91;73.99
47434;SHT31;33184;48.774;8.918;2022-09-01T22:19:33;15.88;74.39
47434;SHT31;33184;48.774;8.918;2022-09-01T22:24:54;15.71;74.42
47434;SHT31;33184;48.774;8.918;2022-09-01T22:30:15;15.64;74.69
47434;SHT31;33184;48.774;8.918;2022-09-01T22:35:43;15.61;75.25
47434;SHT31;33184;48.774;8.918;2022-09-01T22:41:04;15.50;75.58
47434;SHT31;33184;48.774;8.918;2022-09-01T22:46:25;15.36;75.85
47434;SHT31;33184;48.774;8.918;2022-09-01T22:51:46;15.27;76.30
47434;SHT31;33184;48.774;8.918;2022-09-01T22:57:07;15.22;76.37
47434;SHT31;33184;48.774;8.918;2022-09-01T23:02:27;15.13;75.82
47434;SHT31;33184;48.774;8.918;2022-09-01T23:07:49;15.05;76.65
47434;SHT31;33184;48.774;8.918;2022-09-01T23:13:10;14.89;76.21
47434;SHT31;33184;48.774;8.918;2022-09-01T23:18:33;14.84;76.51
47434;SHT31;33184;48.774;8.918;2022-09-01T23:23:54;14.85;76.84
47434;SHT31;33184;48.774;8.918;2022-09-01T23:29:15;14.72;77.63
47434;SHT31;33184;48.774;8.918;2022-09-01T23:34:37;14.72;77.74
47434;SHT31;33184;48.774;8.918;2022-09-01T23:39:58;14.61;77.95
47434;SHT31;33184;48.774;8.918;2022-09-01T23:45:18;14.57;77.90
47434;SHT31;33184;48.774;8.918;2022-09-01T23:50:46;14.50;77.63
47434;SHT31;33184;48.774;8.918;2022-09-01T23:56:15;14.54;77.75
